sensor_id;sensor_type;location;lat;lon;timestamp;P1;durP1;ratioP1;P2;durP2;ratioP2
27999;SDS011;15328;50.860;10.562;2022-10-16T00:04:28;0.50;;;0.47;;
27999;SDS011;15328;50.860;10.562;2022-10-16T00:09:28;1.67;;;0.50;;
27999;SDS011;15328;50.860;10.562;2022-10-16T00:14:29;0.50;;;0.50;;
27999;SDS011;15328;50.860;10.562;2022-10-16T00:19:29;0.97;;;0.50;;
27999;SDS011;15328;50.860;10.562;2022-10-16T00:24:29;2.23;;;0.60;;
27999;SDS011;15328;50.860;10.562;2022-10-16T00:29:30;0.40;;;0.40;;
27999;SDS011;15328;50.860;10.562;2022-10-16T00:34:30;0.50;;;0.50;;
27999;SDS011;15328;50.860;10.562;2022-10-16T00:39:30;3.30;;;0.83;;
27999;SDS011;15328;50.860;10.562;2022-10-16T00:44:44;0.70;;;0.50;;
27999;SDS011;15328;50.860;10.562;2022-10-16T00:49:46;0.60;;;0.50;;
27999;SDS011;15328;50.860;10.562;2022-10-16T00:54:49;0.80;;;0.40;;
27999;SDS011;15328;50.860;10.562;2022-10-16T00:59:50;0.60;;;0.60;;
27999;SDS011;15328;50.860;10.562;2022-10-16T01:04:52;0.80;;;0.60;;
27999;SDS011;15328;50.860;10.562;2022-10-16T01:09:57;1.38;;;0.50;;
27999;SDS011;15328;50.860;10.562;2022-10-16T01:15:10;2.13;;;0.60;;
27999;SDS011;15328;50.860;10.562;2022-10-16T01:20:32;1.35;;;0.70;;
27999;SDS011;15328;50.860;10.562;2022-10-16T01:31:00;0.40;;;0.40;;
27999;SDS011;15328;50.860;10.562;2022-10-16T01:36:03;0.50;;;0.40;;
27999;SDS011;15328;50.860;10.562;2022-10-16T01:46:20;0.68;;;0.47;;
27999;SDS011;15328;50.860;10.562;2022-10-16T01:51:22;0.88;;;0.60;;
27999;SDS011;15328;50.860;10.562;2022-10-16T01:56:24;0.63;;;0.50;;
27999;SDS011;15328;50.860;10.562;2022-10-16T02:01:26;0.68;;;0.40;;
27999;SDS011;15328;50.860;10.562;2022-10-16T02:06:29;0.55;;;0.50;;
27999;SDS011;15328;50.860;10.562;2022-10-16T02:11:30;1.10;;;0.60;;
27999;SDS011;15328;50.860;10.562;2022-10-16T02:16:34;0.43;;;0.40;;
27999;SDS011;15328;50.860;10.562;2022-10-16T02:26:45;0.82;;;0.60;;
27999;SDS011;15328;50.860;10.562;2022-10-16T02:31:59;0.60;;;0.50;;
27999;SDS011;15328;50.860;10.562;2022-10-16T02:37:03;0.80;;;0.50;;
27999;SDS011;15328;50.860;10.562;2022-10-16T02:42:09;0.60;;;0.43;;
27999;SDS011;15328;50.860;10.562;2022-10-16T02:47:11;0.55;;;0.38;;
27999;SDS011;15328;50.860;10.562;2022-10-16T02:52:12;1.45;;;0.50;;
27999;SDS011;15328;50.860;10.562;2022-10-16T02:57:12;0.63;;;0.38;;
27999;SDS011;15328;50.860;10.562;2022-10-16T03:02:13;0.40;;;0.40;;
27999;SDS011;15328;50.860;10.562;2022-10-16T03:07:13;0.33;;;0.30;;
27999;SDS011;15328;50.860;10.562;2022-10-16T03:12:13;0.60;;;0.43;;
27999;SDS011;15328;50.860;10.562;2022-10-16T03:17:14;0.40;;;0.35;;
27999;SDS011;15328;50.860;10.562;2022-10-16T03:22:16;0.80;;;0.60;;
27999;SDS011;15328;50.860;10.562;2022-10-16T03:27:17;0.90;;;0.60;;
27999;SDS011;15328;50.860;10.562;2022-10-16T03:32:17;0.97;;;0.50;;
27999;SDS011;15328;50.860;10.562;2022-10-16T03:37:18;0.60;;;0.50;;
27999;SDS011;15328;50.860;10.562;2022-10-16T03:42:18;0.50;;;0.50;;
27999;SDS011;15328;50.860;10.562;2022-10-16T03:47:19;1.10;;;0.70;;
27999;SDS011;15328;50.860;10.562;2022-10-16T03:52:21;0.50;;;0.50;;
27999;SDS011;15328;50.860;10.562;2022-10-16T03:57:21;0.70;;;0.70;;
27999;SDS011;15328;50.860;10.562;2022-10-16T04:02:22;0.67;;;0.67;;
27999;SDS011;15328;50.860;10.562;2022-10-16T04:07:22;0.60;;;0.60;;
27999;SDS011;15328;50.860;10.562;2022-10-16T04:12:23;1.90;;;0.90;;
27999;SDS011;15328;50.860;10.562;2022-10-16T04:17:23;1.63;;;1.10;;
27999;SDS011;15328;50.860;10.562;2022-10-16T04:22:23;2.47;;;1.00;;
27999;SDS011;15328;50.860;10.562;2022-10-16T04:27:24;3.65;;;1.38;;
27999;SDS011;15328;50.860;10.562;2022-10-16T04:32:24;1.17;;;1.00;;
27999;SDS011;15328;50.860;10.562;2022-10-16T04:37:25;0.77;;;0.68;;
27999;SDS011;15328;50.860;10.562;2022-10-16T04:42:26;1.55;;;0.93;;
27999;SDS011;15328;50.860;10.562;2022-10-16T04:47:27;2.27;;;1.00;;
27999;SDS011;15328;50.860;10.562;2022-10-16T04:52:27;0.80;;;0.70;;
27999;SDS011;15328;50.860;10.562;2022-10-16T04:57:29;0.70;;;0.68;;
27999;SDS011;15328;50.860;10.562;2022-10-16T05:02:30;1.17;;;0.60;;
27999;SDS011;15328;50.860;10.562;2022-10-16T05:07:30;0.70;;;0.70;;
27999;SDS011;15328;50.860;10.562;2022-10-16T05:12:30;0.68;;;0.68;;
27999;SDS011;15328;50.860;10.562;2022-10-16T05:17:31;1.13;;;0.73;;
27999;SDS011;15328;50.860;10.562;2022-10-16T05:22:31;1.00;;;0.90;;
27999;SDS011;15328;50.860;10.562;2022-10-16T05:27:31;1.30;;;0.80;;
27999;SDS011;15328;50.860;10.562;2022-10-16T05:32:32;2.05;;;0.82;;
27999;SDS011;15328;50.860;10.562;2022-10-16T05:37:32;1.23;;;0.63;;
27999;SDS011;15328;50.860;10.562;2022-10-16T05:42:33;0.47;;;0.47;;
27999;SDS011;15328;50.860;10.562;2022-10-16T05:47:33;1.53;;;0.50;;
27999;SDS011;15328;50.860;10.562;2022-10-16T05:52:33;0.87;;;0.70;;
27999;SDS011;15328;50.860;10.562;2022-10-16T05:57:34;0.73;;;0.60;;
27999;SDS011;15328;50.860;10.562;2022-10-16T06:02:34;0.60;;;0.57;;
27999;SDS011;15328;50.860;10.562;2022-10-16T06:07:35;1.13;;;0.80;;
27999;SDS011;15328;50.860;10.562;2022-10-16T06:12:35;0.75;;;0.70;;
27999;SDS011;15328;50.860;10.562;2022-10-16T06:17:36;1.60;;;0.50;;
27999;SDS011;15328;50.860;10.562;2022-10-16T06:22:36;0.50;;;0.50;;
27999;SDS011;15328;50.860;10.562;2022-10-16T06:27:38;0.63;;;0.60;;
27999;SDS011;15328;50.860;10.562;2022-10-16T06:32:40;0.60;;;0.60;;
27999;SDS011;15328;50.860;10.562;2022-10-16T06:37:40;0.60;;;0.57;;
27999;SDS011;15328;50.860;10.562;2022-10-16T06:42:41;0.43;;;0.43;;
27999;SDS011;15328;50.860;10.562;2022-10-16T06:47:42;0.60;;;0.50;;
27999;SDS011;15328;50.860;10.562;2022-10-16T06:52:42;2.05;;;0.60;;
27999;SDS011;15328;50.860;10.562;2022-10-16T06:57:43;2.07;;;1.27;;
27999;SDS011;15328;50.860;10.562;2022-10-16T07:02:43;2.40;;;1.30;;
27999;SDS011;15328;50.860;10.562;2022-10-16T07:07:44;2.45;;;0.80;;
27999;SDS011;15328;50.860;10.562;2022-10-16T07:12:44;3.35;;;0.90;;
27999;SDS011;15328;50.860;10.562;2022-10-16T07:17:45;2.17;;;1.45;;
27999;SDS011;15328;50.860;10.562;2022-10-16T07:22:45;3.08;;;2.75;;
27999;SDS011;15328;50.860;10.562;2022-10-16T07:27:46;0.60;;;0.50;;
27999;SDS011;15328;50.860;10.562;2022-10-16T07:32:46;1.58;;;1.13;;
27999;SDS011;15328;50.860;10.562;2022-10-16T07:37:46;3.28;;;1.33;;
27999;SDS011;15328;50.860;10.562;2022-10-16T07:42:47;1.37;;;0.73;;
27999;SDS011;15328;50.860;10.562;2022-10-16T07:47:47;1.02;;;0.70;;
27999;SDS011;15328;50.860;10.562;2022-10-16T07:52:48;1.47;;;0.80;;
27999;SDS011;15328;50.860;10.562;2022-10-16T07:57:48;1.42;;;0.57;;
27999;SDS011;15328;50.860;10.562;2022-10-16T08:02:49;0.50;;;0.50;;
27999;SDS011;15328;50.860;10.562;2022-10-16T08:07:49;1.08;;;0.60;;
27999;SDS011;15328;50.860;10.562;2022-10-16T08:12:51;0.80;;;0.55;;
27999;SDS011;15328;50.860;10.562;2022-10-16T08:17:55;0.80;;;0.70;;
27999;SDS011;15328;50.860;10.562;2022-10-16T08:23:03;1.60;;;1.05;;
27999;SDS011;15328;50.860;10.562;2022-10-16T08:28:07;1.80;;;0.80;;
27999;SDS011;15328;50.860;10.562;2022-10-16T08:33:09;1.15;;;0.82;;
27999;SDS011;15328;50.860;10.562;2022-10-16T08:38:09;2.05;;;0.63;;
27999;SDS011;15328;50.860;10.562;2022-10-16T08:53:57;1.73;;;0.70;;
27999;SDS011;15328;50.860;10.562;2022-10-16T08:59:06;1.40;;;0.90;;
27999;SDS011;15328;50.860;10.562;2022-10-16T09:15:02;1.40;;;0.90;;
27999;SDS011;15328;50.860;10.562;2022-10-16T09:25:31;1.20;;;0.93;;
27999;SDS011;15328;50.860;10.562;2022-10-16T09:30:32;1.40;;;1.20;;
27999;SDS011;15328;50.860;10.562;2022-10-16T09:35:40;1.37;;;1.10;;
27999;SDS011;15328;50.860;10.562;2022-10-16T09:40:43;2.95;;;1.27;;
27999;SDS011;15328;50.860;10.562;2022-10-16T09:45:54;1.30;;;1.20;;
27999;SDS011;15328;50.860;10.562;2022-10-16T09:51:01;1.73;;;1.10;;
27999;SDS011;15328;50.860;10.562;2022-10-16T09:56:03;1.80;;;1.30;;
27999;SDS011;15328;50.860;10.562;2022-10-16T10:01:10;1.20;;;1.10;;
27999;SDS011;15328;50.860;10.562;2022-10-16T10:06:17;7.35;;;3.80;;
27999;SDS011;15328;50.860;10.562;2022-10-16T10:16:44;1.60;;;1.23;;
27999;SDS011;15328;50.860;10.562;2022-10-16T10:21:44;2.08;;;1.00;;
27999;SDS011;15328;50.860;10.562;2022-10-16T10:26:48;0.90;;;0.75;;
27999;SDS011;15328;50.860;10.562;2022-10-16T10:42:34;0.70;;;0.50;;
27999;SDS011;15328;50.860;10.562;2022-10-16T10:53:19;0.50;;;0.50;;
27999;SDS011;15328;50.860;10.562;2022-10-16T11:14:28;1.33;;;0.60;;
27999;SDS011;15328;50.860;10.562;2022-10-16T11:19:41;1.00;;;0.60;;
27999;SDS011;15328;50.860;10.562;2022-10-16T11:25:13;0.88;;;0.43;;
27999;SDS011;15328;50.860;10.562;2022-10-16T11:30:20;0.98;;;0.50;;
27999;SDS011;15328;50.860;10.562;2022-10-16T11:35:23;0.45;;;0.45;;
27999;SDS011;15328;50.860;10.562;2022-10-16T11:40:38;0.45;;;0.32;;
27999;SDS011;15328;50.860;10.562;2022-10-16T11:45:48;0.50;;;0.30;;
27999;SDS011;15328;50.860;10.562;2022-10-16T11:50:53;0.85;;;0.40;;
27999;SDS011;15328;50.860;10.562;2022-10-16T11:55:58;0.75;;;0.40;;
27999;SDS011;15328;50.860;10.562;2022-10-16T12:06:34;0.45;;;0.30;;
27999;SDS011;15328;50.860;10.562;2022-10-16T12:11:40;0.75;;;0.40;;
27999;SDS011;15328;50.860;10.562;2022-10-16T12:16:54;0.63;;;0.30;;
27999;SDS011;15328;50.860;10.562;2022-10-16T12:22:00;0.40;;;0.40;;
27999;SDS011;15328;50.860;10.562;2022-10-16T12:27:04;0.57;;;0.50;;
27999;SDS011;15328;50.860;10.562;2022-10-16T12:37:35;0.82;;;0.50;;
27999;SDS011;15328;50.860;10.562;2022-10-16T12:42:38;0.80;;;0.50;;
27999;SDS011;15328;50.860;10.562;2022-10-16T12:47:47;0.60;;;0.60;;
27999;SDS011;15328;50.860;10.562;2022-10-16T12:52:49;0.57;;;0.50;;
27999;SDS011;15328;50.860;10.562;2022-10-16T13:24:15;0.90;;;0.63;;
27999;SDS011;15328;50.860;10.562;2022-10-16T13:29:16;0.85;;;0.70;;
27999;SDS011;15328;50.860;10.562;2022-10-16T13:34:17;0.60;;;0.50;;
27999;SDS011;15328;50.860;10.562;2022-10-16T13:39:25;0.75;;;0.70;;
27999;SDS011;15328;50.860;10.562;2022-10-16T13:44:27;0.85;;;0.80;;
27999;SDS011;15328;50.860;10.562;2022-10-16T13:49:35;0.88;;;0.50;;
27999;SDS011;15328;50.860;10.562;2022-10-16T13:54:35;0.50;;;0.50;;
27999;SDS011;15328;50.860;10.562;2022-10-16T13:59:38;0.77;;;0.63;;
27999;SDS011;15328;50.860;10.562;2022-10-16T14:04:39;1.52;;;0.98;;
27999;SDS011;15328;50.860;10.562;2022-10-16T14:09:39;1.15;;;0.80;;
27999;SDS011;15328;50.860;10.562;2022-10-16T14:14:41;1.50;;;0.88;;
27999;SDS011;15328;50.860;10.562;2022-10-16T14:19:47;1.20;;;0.65;;
27999;SDS011;15328;50.860;10.562;2022-10-16T14:24:49;1.42;;;0.80;;
27999;SDS011;15328;50.860;10.562;2022-10-16T14:29:50;1.38;;;0.77;;
27999;SDS011;15328;50.860;10.562;2022-10-16T14:34:53;0.80;;;0.63;;
27999;SDS011;15328;50.860;10.562;2022-10-16T14:39:54;1.27;;;0.70;;
27999;SDS011;15328;50.860;10.562;2022-10-16T14:44:55;0.60;;;0.50;;
27999;SDS011;15328;50.860;10.562;2022-10-16T14:49:56;0.98;;;0.65;;
27999;SDS011;15328;50.860;10.562;2022-10-16T14:54:58;0.60;;;0.40;;
27999;SDS011;15328;50.860;10.562;2022-10-16T14:59:59;0.97;;;0.60;;
27999;SDS011;15328;50.860;10.562;2022-10-16T15:10:15;0.70;;;0.50;;
27999;SDS011;15328;50.860;10.562;2022-10-16T15:20:24;0.65;;;0.60;;
27999;SDS011;15328;50.860;10.562;2022-10-16T15:25:33;0.68;;;0.60;;
27999;SDS011;15328;50.860;10.562;2022-10-16T15:30:34;1.55;;;1.30;;
27999;SDS011;15328;50.860;10.562;2022-10-16T15:35:35;2.45;;;2.15;;
27999;SDS011;15328;50.860;10.562;2022-10-16T15:40:36;3.60;;;3.20;;
27999;SDS011;15328;50.860;10.562;2022-10-16T15:45:37;4.78;;;3.80;;
27999;SDS011;15328;50.860;10.562;2022-10-16T15:50:37;3.53;;;3.03;;
27999;SDS011;15328;50.860;10.562;2022-10-16T15:55:38;3.00;;;2.50;;
27999;SDS011;15328;50.860;10.562;2022-10-16T16:00:38;4.47;;;2.50;;
27999;SDS011;15328;50.860;10.562;2022-10-16T16:05:38;2.90;;;2.08;;
27999;SDS011;15328;50.860;10.562;2022-10-16T16:10:40;2.75;;;2.22;;
27999;SDS011;15328;50.860;10.562;2022-10-16T16:15:40;2.77;;;2.23;;
27999;SDS011;15328;50.860;10.562;2022-10-16T16:20:40;3.43;;;2.17;;
27999;SDS011;15328;50.860;10.562;2022-10-16T16:25:41;2.70;;;2.15;;
27999;SDS011;15328;50.860;10.562;2022-10-16T16:30:41;3.23;;;2.40;;
27999;SDS011;15328;50.860;10.562;2022-10-16T16:35:41;2.70;;;2.27;;
27999;SDS011;15328;50.860;10.562;2022-10-16T16:40:41;2.60;;;2.17;;
27999;SDS011;15328;50.860;10.562;2022-10-16T16:45:42;2.37;;;1.90;;
27999;SDS011;15328;50.860;10.562;2022-10-16T16:50:42;2.13;;;1.83;;
27999;SDS011;15328;50.860;10.562;2022-10-16T16:55:43;3.83;;;2.85;;
27999;SDS011;15328;50.860;10.562;2022-10-16T17:00:46;4.07;;;3.10;;
27999;SDS011;15328;50.860;10.562;2022-10-16T17:05:56;5.40;;;3.97;;
27999;SDS011;15328;50.860;10.562;2022-10-16T17:11:21;5.10;;;3.80;;
27999;SDS011;15328;50.860;10.562;2022-10-16T17:16:24;4.57;;;3.65;;
27999;SDS011;15328;50.860;10.562;2022-10-16T17:21:27;5.93;;;3.65;;
27999;SDS011;15328;50.860;10.562;2022-10-16T17:26:29;8.07;;;5.13;;
27999;SDS011;15328;50.860;10.562;2022-10-16T17:31:31;10.07;;;6.40;;
27999;SDS011;15328;50.860;10.562;2022-10-16T17:36:34;8.63;;;6.10;;
27999;SDS011;15328;50.860;10.562;2022-10-16T17:41:36;10.23;;;5.90;;
27999;SDS011;15328;50.860;10.562;2022-10-16T17:46:36;9.55;;;5.85;;
27999;SDS011;15328;50.860;10.562;2022-10-16T17:51:37;7.53;;;5.50;;
27999;SDS011;15328;50.860;10.562;2022-10-16T17:56:37;8.93;;;5.55;;
27999;SDS011;15328;50.860;10.562;2022-10-16T18:01:38;5.85;;;4.15;;
27999;SDS011;15328;50.860;10.562;2022-10-16T18:06:40;4.53;;;3.20;;
27999;SDS011;15328;50.860;10.562;2022-10-16T18:11:43;3.05;;;1.50;;
27999;SDS011;15328;50.860;10.562;2022-10-16T18:16:43;1.67;;;1.30;;
27999;SDS011;15328;50.860;10.562;2022-10-16T18:21:44;2.00;;;1.08;;
27999;SDS011;15328;50.860;10.562;2022-10-16T18:26:45;1.13;;;1.00;;
27999;SDS011;15328;50.860;10.562;2022-10-16T18:31:45;1.07;;;0.80;;
27999;SDS011;15328;50.860;10.562;2022-10-16T18:36:46;0.93;;;0.83;;
27999;SDS011;15328;50.860;10.562;2022-10-16T18:41:46;1.83;;;0.90;;
27999;SDS011;15328;50.860;10.562;2022-10-16T18:46:46;1.30;;;1.00;;
27999;SDS011;15328;50.860;10.562;2022-10-16T18:51:47;1.40;;;0.90;;
27999;SDS011;15328;50.860;10.562;2022-10-16T18:56:50;1.75;;;1.20;;
27999;SDS011;15328;50.860;10.562;2022-10-16T19:01:51;1.65;;;0.95;;
27999;SDS011;15328;50.860;10.562;2022-10-16T19:06:52;1.10;;;1.00;;
27999;SDS011;15328;50.860;10.562;2022-10-16T19:11:53;1.00;;;0.82;;
27999;SDS011;15328;50.860;10.562;2022-10-16T19:16:53;1.10;;;0.90;;
27999;SDS011;15328;50.860;10.562;2022-10-16T19:21:53;1.63;;;1.10;;
27999;SDS011;15328;50.860;10.562;2022-10-16T19:27:10;1.52;;;1.10;;
27999;SDS011;15328;50.860;10.562;2022-10-16T19:32:10;1.40;;;1.00;;
27999;SDS011;15328;50.860;10.562;2022-10-16T19:37:11;1.90;;;1.33;;
27999;SDS011;15328;50.860;10.562;2022-10-16T19:42:11;1.98;;;1.30;;
27999;SDS011;15328;50.860;10.562;2022-10-16T19:47:11;2.75;;;1.50;;
27999;SDS011;15328;50.860;10.562;2022-10-16T19:52:12;1.50;;;1.10;;
27999;SDS011;15328;50.860;10.562;2022-10-16T19:57:12;1.43;;;1.10;;
27999;SDS011;15328;50.860;10.562;2022-10-16T20:02:13;1.30;;;0.90;;
27999;SDS011;15328;50.860;10.562;2022-10-16T20:07:13;1.20;;;1.10;;
27999;SDS011;15328;50.860;10.562;2022-10-16T20:12:15;1.92;;;1.25;;
27999;SDS011;15328;50.860;10.562;2022-10-16T20:17:16;1.38;;;1.10;;
27999;SDS011;15328;50.860;10.562;2022-10-16T20:22:16;2.40;;;1.27;;
27999;SDS011;15328;50.860;10.562;2022-10-16T20:27:17;2.28;;;1.50;;
27999;SDS011;15328;50.860;10.562;2022-10-16T20:32:17;2.10;;;1.27;;
27999;SDS011;15328;50.860;10.562;2022-10-16T20:37:17;2.03;;;1.60;;
27999;SDS011;15328;50.860;10.562;2022-10-16T20:42:18;1.38;;;1.05;;
27999;SDS011;15328;50.860;10.562;2022-10-16T20:47:18;2.50;;;1.30;;
27999;SDS011;15328;50.860;10.562;2022-10-16T20:52:19;2.00;;;1.53;;
27999;SDS011;15328;50.860;10.562;2022-10-16T20:57:19;2.60;;;1.87;;
27999;SDS011;15328;50.860;10.562;2022-10-16T21:02:20;1.95;;;1.58;;
27999;SDS011;15328;50.860;10.562;2022-10-16T21:07:21;1.90;;;1.35;;
27999;SDS011;15328;50.860;10.562;2022-10-16T21:12:25;2.15;;;1.52;;
27999;SDS011;15328;50.860;10.562;2022-10-16T21:17:26;1.33;;;1.13;;
27999;SDS011;15328;50.860;10.562;2022-10-16T21:22:30;1.45;;;1.08;;
27999;SDS011;15328;50.860;10.562;2022-10-16T21:27:40;1.40;;;1.00;;
27999;SDS011;15328;50.860;10.562;2022-10-16T21:32:40;1.42;;;1.00;;
27999;SDS011;15328;50.860;10.562;2022-10-16T21:37:41;1.57;;;1.10;;
27999;SDS011;15328;50.860;10.562;2022-10-16T21:42:41;2.70;;;1.10;;
27999;SDS011;15328;50.860;10.562;2022-10-16T21:47:41;1.48;;;1.20;;
27999;SDS011;15328;50.860;10.562;2022-10-16T21:52:42;1.40;;;1.02;;
27999;SDS011;15328;50.860;10.562;2022-10-16T21:57:42;1.73;;;1.00;;
27999;SDS011;15328;50.860;10.562;2022-10-16T22:02:43;1.45;;;1.00;;
27999;SDS011;15328;50.860;10.562;2022-10-16T22:07:43;1.67;;;1.02;;
27999;SDS011;15328;50.860;10.562;2022-10-16T22:12:43;1.52;;;1.00;;
27999;SDS011;15328;50.860;10.562;2022-10-16T22:17:43;1.23;;;1.00;;
27999;SDS011;15328;50.860;10.562;2022-10-16T22:22:44;2.20;;;1.10;;
27999;SDS011;15328;50.860;10.562;2022-10-16T22:27:44;1.55;;;1.10;;
27999;SDS011;15328;50.860;10.562;2022-10-16T22:32:44;1.53;;;1.07;;
27999;SDS011;15328;50.860;10.562;2022-10-16T22:37:45;1.30;;;1.00;;
27999;SDS011;15328;50.860;10.562;2022-10-16T22:42:45;1.63;;;0.90;;
27999;SDS011;15328;50.860;10.562;2022-10-16T22:47:45;1.47;;;1.00;;
27999;SDS011;15328;50.860;10.562;2022-10-16T22:52:45;1.40;;;1.10;;
27999;SDS011;15328;50.860;10.562;2022-10-16T22:57:46;2.17;;;1.23;;
27999;SDS011;15328;50.860;10.562;2022-10-16T23:02:46;1.40;;;1.03;;
27999;SDS011;15328;50.860;10.562;2022-10-16T23:07:46;1.30;;;1.00;;
27999;SDS011;15328;50.860;10.562;2022-10-16T23:12:48;1.58;;;1.05;;
27999;SDS011;15328;50.860;10.562;2022-10-16T23:17:49;1.92;;;0.98;;
27999;SDS011;15328;50.860;10.562;2022-10-16T23:22:49;1.43;;;1.10;;
27999;SDS011;15328;50.860;10.562;2022-10-16T23:27:52;1.02;;;0.88;;
27999;SDS011;15328;50.860;10.562;2022-10-16T23:32:53;1.13;;;0.95;;
27999;SDS011;15328;50.860;10.562;2022-10-16T23:37:53;2.33;;;1.10;;
27999;SDS011;15328;50.860;10.562;2022-10-16T23:42:53;1.30;;;1.03;;
27999;SDS011;15328;50.860;10.562;2022-10-16T23:47:53;3.03;;;1.40;;
27999;SDS011;15328;50.860;10.562;2022-10-16T23:52:54;1.80;;;1.30;;
27999;SDS011;15328;50.860;10.562;2022-10-16T23:57:54;1.70;;;1.10;;
